createdAt,value
2017-03-31T00:00:19.087Z,0
2017-03-31T00:05:19.054Z,0
2017-03-31T00:10:18.450Z,0
2017-03-31T00:15:18.721Z,0
2017-03-31T00:20:18.988Z,0
2017-03-31T00:25:18.680Z,0
2017-03-31T00:30:18.940Z,0
2017-03-31T00:35:18.922Z,0
2017-03-31T00:40:18.902Z,0
2017-03-31T00:45:18.574Z,0
2017-03-31T00:50:18.574Z,0
2017-03-31T00:55:18.868Z,0
2017-03-31T01:00:18.874Z,0
2017-03-31T01:05:18.836Z,0
2017-03-31T01:10:18.800Z,0
2017-03-31T01:15:18.728Z,0
2017-03-31T01:20:18.706Z,0
2017-03-31T01:25:18.684Z,0
2017-03-31T01:30:18.376Z,0
2017-03-31T01:35:18.663Z,0
2017-03-31T01:40:18.620Z,0
2017-03-31T01:45:18.592Z,0
2017-03-31T01:50:18.602Z,0
2017-03-31T01:55:18.558Z,0
2017-03-31T02:00:18.532Z,0
2017-03-31T02:05:18.506Z,0
2017-03-31T02:10:18.485Z,0
2017-03-31T02:15:18.460Z,0
2017-03-31T02:20:18.124Z,0
2017-03-31T02:25:18.162Z,0
2017-03-31T02:30:18.440Z,0
2017-03-31T02:35:18.594Z,0
2017-03-31T02:40:18.391Z,0
2017-03-31T02:45:18.306Z,0
2017-03-31T02:50:18.294Z,0
2017-03-31T02:55:18.261Z,0
2017-03-31T03:00:18.244Z,0
2017-03-31T03:05:18.216Z,0
2017-03-31T03:10:17.887Z,0
2017-03-31T03:15:18.184Z,0
2017-03-31T03:20:17.847Z,0
2017-03-31T03:25:18.127Z,0
2017-03-31T03:30:18.110Z,0
2017-03-31T03:35:18.100Z,0
2017-03-31T03:40:18.089Z,0
2017-03-31T03:45:18.067Z,0
2017-03-31T03:50:17.811Z,0
2017-03-31T03:55:17.987Z,0
2017-03-31T04:00:17.812Z,0
2017-03-31T04:05:17.617Z,0
2017-03-31T04:10:17.902Z,0
2017-03-31T04:15:17.570Z,0
2017-03-31T04:20:17.858Z,0
2017-03-31T04:25:17.827Z,0
2017-03-31T04:30:17.803Z,0
2017-03-31T04:35:17.472Z,0
2017-03-31T04:40:17.447Z,0
2017-03-31T04:45:17.715Z,0
2017-03-31T04:50:17.703Z,0
2017-03-31T04:55:17.685Z,0
2017-03-31T05:00:17.698Z,0
2017-03-31T05:05:17.727Z,0
2017-03-31T05:10:17.741Z,0
2017-03-31T05:15:17.612Z,0
2017-03-31T05:20:17.241Z,4
2017-03-31T05:25:17.529Z,4
2017-03-31T05:30:17.504Z,4
2017-03-31T05:35:17.472Z,8
2017-03-31T05:40:17.458Z,8
2017-03-31T05:45:17.130Z,8
2017-03-31T05:50:17.099Z,8
2017-03-31T05:55:17.375Z,12
2017-03-31T06:00:17.357Z,12
2017-03-31T06:05:17.331Z,16
2017-03-31T06:10:17.296Z,16
2017-03-31T06:15:17.316Z,20
2017-03-31T06:20:17.275Z,20
2017-03-31T06:25:17.275Z,28
2017-03-31T06:30:17.225Z,36
2017-03-31T06:35:17.192Z,32
2017-03-31T06:40:17.146Z,40
2017-03-31T06:45:17.136Z,44
2017-03-31T06:50:17.116Z,44
2017-03-31T06:55:17.080Z,48
2017-03-31T07:00:17.078Z,68
2017-03-31T07:05:17.036Z,64
2017-03-31T07:10:17.010Z,80
2017-03-31T07:15:16.971Z,84
2017-03-31T07:20:16.990Z,64
2017-03-31T07:25:16.624Z,52
2017-03-31T07:30:17.000Z,48
2017-03-31T07:35:16.579Z,68
2017-03-31T07:40:16.894Z,60
2017-03-31T07:45:16.872Z,64
2017-03-31T07:50:16.872Z,60
2017-03-31T07:55:16.811Z,76
2017-03-31T08:00:16.467Z,80
2017-03-31T08:05:16.454Z,68
2017-03-31T08:10:16.712Z,36
2017-03-31T08:15:16.678Z,40
2017-03-31T08:20:16.681Z,44
2017-03-31T08:25:16.325Z,56
2017-03-31T08:30:16.612Z,56
2017-03-31T08:35:16.586Z,44
2017-03-31T08:40:16.560Z,84
2017-03-31T08:45:16.540Z,88
2017-03-31T08:50:16.538Z,68
2017-03-31T08:55:16.200Z,60
2017-03-31T09:00:16.157Z,56
2017-03-31T09:05:16.142Z,64
2017-03-31T09:10:16.482Z,60
2017-03-31T09:15:16.407Z,60
2017-03-31T09:20:16.097Z,64
2017-03-31T09:25:16.342Z,80
2017-03-31T09:30:16.322Z,68
2017-03-31T09:35:16.315Z,68
2017-03-31T09:40:16.045Z,56
2017-03-31T09:45:15.949Z,52
2017-03-31T09:50:16.231Z,48
2017-03-31T09:55:16.205Z,76
2017-03-31T10:00:16.183Z,44
2017-03-31T10:05:15.859Z,52
2017-03-31T10:10:16.127Z,64
2017-03-31T10:15:15.849Z,64
2017-03-31T10:20:16.155Z,64
2017-03-31T10:25:16.080Z,56
2017-03-31T10:30:16.135Z,88
2017-03-31T10:35:16.017Z,76
2017-03-31T10:40:16.091Z,76
2017-03-31T10:45:16.113Z,76
2017-03-31T10:50:15.677Z,60
2017-03-31T10:55:15.643Z,68
2017-03-31T11:00:15.913Z,56
2017-03-31T11:05:15.819Z,56
2017-03-31T11:10:15.855Z,52
2017-03-31T11:15:15.522Z,48
2017-03-31T11:20:15.190Z,48
2017-03-31T11:25:15.822Z,44
2017-03-31T11:30:15.761Z,44
2017-03-31T11:35:15.451Z,44
2017-03-31T11:40:15.712Z,36
2017-03-31T11:45:15.394Z,36
2017-03-31T11:50:15.700Z,44
2017-03-31T11:55:15.676Z,40
2017-03-31T12:00:15.635Z,36
2017-03-31T12:05:15.314Z,28
2017-03-31T12:10:15.836Z,36
2017-03-31T12:15:15.556Z,32
2017-03-31T12:20:15.530Z,32
2017-03-31T12:25:15.510Z,32
2017-03-31T12:30:15.498Z,32
2017-03-31T12:35:15.483Z,32
2017-03-31T12:40:15.170Z,28
2017-03-31T12:45:15.130Z,32
2017-03-31T12:50:15.409Z,28
2017-03-31T12:55:15.410Z,28
2017-03-31T13:00:15.307Z,28
2017-03-31T13:05:15.302Z,28
2017-03-31T13:10:14.966Z,32
2017-03-31T13:15:14.930Z,40
2017-03-31T13:20:14.769Z,24
2017-03-31T13:25:14.998Z,28
2017-03-31T13:30:14.662Z,20
2017-03-31T13:55:14.648Z,28
2017-03-31T14:00:14.587Z,16
2017-03-31T14:05:14.541Z,16
2017-03-31T14:10:14.489Z,16
2017-03-31T14:15:14.417Z,20
2017-03-31T14:20:14.377Z,20
2017-03-31T14:25:14.294Z,16
2017-03-31T14:30:14.244Z,16
2017-03-31T14:35:14.193Z,16
2017-03-31T14:40:13.820Z,12
2017-03-31T14:45:14.093Z,16
2017-03-31T14:50:14.026Z,16
2017-03-31T14:55:13.964Z,16
2017-03-31T15:00:13.900Z,16
2017-03-31T15:05:13.871Z,12
2017-03-31T15:10:13.767Z,12
2017-03-31T15:15:13.769Z,12
2017-03-31T15:20:13.354Z,12
2017-03-31T15:25:13.307Z,8
2017-03-31T15:30:13.271Z,8
2017-03-31T15:35:13.534Z,8
2017-03-31T15:40:13.221Z,4
2017-03-31T15:45:13.646Z,8
2017-03-31T15:50:13.322Z,8
2017-03-31T15:55:13.282Z,8
2017-03-31T16:00:13.030Z,4
2017-03-31T16:05:13.222Z,8
2017-03-31T16:10:12.917Z,4
2017-03-31T16:15:13.176Z,4
2017-03-31T16:20:12.872Z,4
2017-03-31T16:25:13.148Z,4
2017-03-31T16:30:13.129Z,4
2017-03-31T16:35:13.115Z,4
2017-03-31T16:40:13.086Z,4
2017-03-31T16:45:13.061Z,4
2017-03-31T16:50:13.064Z,4
2017-03-31T16:55:13.069Z,4
2017-03-31T17:00:13.114Z,0
2017-03-31T17:05:12.669Z,0
2017-03-31T17:10:12.333Z,0
2017-03-31T17:15:12.933Z,0
2017-03-31T17:20:12.890Z,0
2017-03-31T17:25:12.878Z,4
2017-03-31T17:30:12.649Z,4
2017-03-31T17:35:12.883Z,0
2017-03-31T17:40:12.816Z,0
2017-03-31T17:45:12.481Z,0
2017-03-31T17:50:12.783Z,0
2017-03-31T17:55:12.437Z,0
2017-03-31T18:00:12.741Z,0
2017-03-31T18:05:12.709Z,0
2017-03-31T18:10:12.755Z,0
2017-03-31T18:15:12.366Z,0
2017-03-31T18:20:12.351Z,0
2017-03-31T18:25:12.598Z,12
2017-03-31T18:30:12.256Z,12
2017-03-31T18:35:12.229Z,0
2017-03-31T18:40:12.501Z,0
2017-03-31T18:45:12.188Z,0
2017-03-31T18:50:12.449Z,0
2017-03-31T18:55:12.435Z,0
2017-03-31T19:00:12.409Z,0
2017-03-31T19:05:12.373Z,0
2017-03-31T19:10:12.371Z,0
2017-03-31T19:15:11.733Z,0
2017-03-31T19:20:12.013Z,0
2017-03-31T19:25:12.307Z,0
2017-03-31T19:30:12.273Z,0
2017-03-31T19:35:12.247Z,0
2017-03-31T19:40:12.307Z,0
2017-03-31T19:45:12.222Z,0
2017-03-31T19:50:12.199Z,0
2017-03-31T19:55:11.869Z,0
2017-03-31T20:00:12.144Z,0
2017-03-31T20:05:12.104Z,0
2017-03-31T20:10:12.118Z,0
2017-03-31T20:15:12.077Z,0
2017-03-31T20:20:12.045Z,0
2017-03-31T20:25:12.015Z,0
2017-03-31T20:30:12.000Z,0
2017-03-31T20:35:11.679Z,0
2017-03-31T20:40:11.729Z,0
2017-03-31T20:45:11.966Z,0
2017-03-31T20:50:11.618Z,0
2017-03-31T20:55:12.012Z,0
2017-03-31T21:00:11.892Z,0
2017-03-31T21:05:11.860Z,0
2017-03-31T21:10:11.526Z,0
2017-03-31T21:15:11.934Z,0
2017-03-31T21:20:11.768Z,0
2017-03-31T21:25:11.746Z,0
2017-03-31T21:30:11.728Z,0
2017-03-31T21:35:11.709Z,0
2017-03-31T21:40:11.676Z,0
2017-03-31T21:45:11.353Z,0
2017-03-31T21:50:11.615Z,0
2017-03-31T21:55:11.619Z,0
2017-03-31T22:00:11.577Z,0
2017-03-31T22:05:11.258Z,0
2017-03-31T22:10:11.549Z,0
2017-03-31T22:15:11.549Z,0
2017-03-31T22:20:11.490Z,0
2017-03-31T22:25:11.709Z,0
2017-03-31T22:30:11.502Z,0
2017-03-31T22:35:11.565Z,0
2017-03-31T22:40:11.397Z,0
2017-03-31T22:45:11.373Z,0
2017-03-31T22:50:11.343Z,0
2017-03-31T22:55:11.319Z,0
2017-03-31T23:00:11.301Z,0
2017-03-31T23:05:11.009Z,0
2017-03-31T23:10:11.272Z,0
2017-03-31T23:15:11.244Z,0
2017-03-31T23:20:11.202Z,0
2017-03-31T23:25:11.182Z,0
2017-03-31T23:30:11.148Z,0
2017-03-31T23:35:11.125Z,0
2017-03-31T23:40:11.170Z,0
2017-03-31T23:45:10.767Z,0
2017-03-31T23:50:11.098Z,0
2017-03-31T23:55:10.745Z,0
